createdAt,value
2023-05-11T00:01:09.342Z,4.68
2023-05-11T00:06:11.173Z,4.22
2023-05-11T00:11:13.100Z,4.45
2023-05-11T00:16:15.078Z,3.70
2023-05-11T00:21:16.989Z,3.72
2023-05-11T00:26:18.807Z,4.43
2023-05-11T00:31:21.157Z,4.75
2023-05-11T00:36:23.189Z,4.75
2023-05-11T00:41:25.472Z,3.75
2023-05-11T00:46:28.328Z,4.07
2023-05-11T00:51:32.168Z,4.13
2023-05-11T00:56:34.162Z,4.22
2023-05-11T01:01:38.761Z,4.28
2023-05-11T01:07:12.339Z,4.25
2023-05-11T01:12:26.801Z,5.13
2023-05-11T01:17:50.536Z,5.45
2023-05-11T01:23:07.056Z,5.80
2023-05-11T01:28:29.561Z,5.60
2023-05-11T01:33:35.232Z,6.00
2023-05-11T01:38:42.085Z,6.30
2023-05-11T01:43:49.520Z,6.13
2023-05-11T01:48:54.735Z,5.30
2023-05-11T01:53:58.944Z,6.07
2023-05-11T01:59:01.556Z,6.20
2023-05-11T02:04:05.910Z,5.65
2023-05-11T02:09:09.555Z,6.68
2023-05-11T02:14:12.233Z,5.75
2023-05-11T02:19:14.579Z,6.25
2023-05-11T02:24:18.272Z,6.45
2023-05-11T02:29:20.302Z,5.50
2023-05-11T02:34:28.879Z,5.32
2023-05-11T02:39:35.558Z,5.97
2023-05-11T02:44:39.427Z,5.45
2023-05-11T02:49:44.303Z,5.47
2023-05-11T02:54:49.641Z,5.70
2023-05-11T02:59:52.131Z,5.50
2023-05-11T03:04:54.097Z,5.00
2023-05-11T03:09:56.216Z,5.55
2023-05-11T03:15:00.876Z,5.05
2023-05-11T03:20:04.819Z,4.72
2023-05-11T03:25:08.148Z,4.28
2023-05-11T03:30:12.194Z,4.75
2023-05-11T03:35:19.337Z,5.55
2023-05-11T03:40:24.181Z,4.88
2023-05-11T03:45:31.813Z,4.07
2023-05-11T03:50:34.325Z,4.70
2023-05-11T03:55:36.275Z,4.47
2023-05-11T04:00:42.733Z,4.60
2023-05-11T04:05:44.677Z,3.88
2023-05-11T04:10:47.793Z,3.85
2023-05-11T04:15:50.034Z,3.90
2023-05-11T04:20:52.796Z,3.65
2023-05-11T04:25:55.629Z,3.83
2023-05-11T04:30:57.990Z,3.70
2023-05-11T04:36:00.045Z,3.53
2023-05-11T04:41:06.890Z,3.75
2023-05-11T04:46:09.733Z,3.45
2023-05-11T04:51:11.781Z,3.15
2023-05-11T04:56:18.068Z,3.75
2023-05-11T05:01:20.084Z,4.05
2023-05-11T05:06:22.087Z,3.03
2023-05-11T05:11:24.378Z,3.75
2023-05-11T05:16:26.465Z,3.42
2023-05-11T05:21:29.120Z,3.35
2023-05-11T05:26:31.723Z,3.13
2023-05-11T05:31:35.088Z,3.40
2023-05-11T05:36:38.285Z,3.15
2023-05-11T05:41:42.149Z,3.45
2023-05-11T05:46:45.078Z,3.35
2023-05-11T05:51:48.087Z,3.08
2023-05-11T05:56:50.583Z,2.92
2023-05-11T06:01:52.566Z,3.20
2023-05-11T06:06:58.258Z,3.00
2023-05-11T06:12:00.690Z,3.15
2023-05-11T06:17:02.677Z,3.03
2023-05-11T06:22:06.632Z,2.97
2023-05-11T06:27:10.381Z,3.13
2023-05-11T06:32:12.291Z,2.70
2023-05-11T06:37:20.450Z,2.80
2023-05-11T06:42:24.955Z,2.55
2023-05-11T06:47:38.912Z,2.75
2023-05-11T06:52:40.872Z,2.50
2023-05-11T06:57:42.789Z,2.75
2023-05-11T07:02:44.741Z,2.95
2023-05-11T07:07:46.767Z,2.88
2023-05-11T07:12:49.093Z,3.17
2023-05-11T07:17:51.144Z,2.83
2023-05-11T07:22:56.705Z,2.40
2023-05-11T07:27:58.609Z,2.70
2023-05-11T07:33:00.564Z,2.65
2023-05-11T07:38:03.835Z,2.65
2023-05-11T07:43:05.734Z,2.90
2023-05-11T07:48:07.921Z,2.53
2023-05-11T07:53:09.985Z,2.67
2023-05-11T07:58:11.946Z,2.67
2023-05-11T08:03:14.709Z,2.80
2023-05-11T08:08:16.651Z,2.80
2023-05-11T08:13:18.984Z,2.53
2023-05-11T08:18:22.473Z,2.42
2023-05-11T08:23:24.326Z,2.72
2023-05-11T08:28:26.385Z,2.35
2023-05-11T08:38:33.578Z,2.85
2023-05-11T08:43:39.795Z,2.78
2023-05-11T08:48:42.656Z,2.70
2023-05-11T08:53:45.061Z,2.60
2023-05-11T08:58:47.512Z,2.80
2023-05-11T09:03:50.977Z,2.28
2023-05-11T09:08:53.690Z,1.88
2023-05-11T09:13:55.717Z,2.60
2023-05-11T09:19:04.351Z,2.00
2023-05-11T09:24:06.655Z,2.20
2023-05-11T09:29:08.614Z,2.15
2023-05-11T09:34:14.657Z,2.20
2023-05-11T09:44:31.835Z,2.20
2023-05-11T09:49:34.845Z,2.45
2023-05-11T09:54:44.613Z,2.40
2023-05-11T09:59:46.478Z,1.85
2023-05-11T10:04:52.747Z,2.17
2023-05-11T10:09:56.933Z,2.00
2023-05-11T10:15:03.908Z,1.95
2023-05-11T10:20:06.799Z,1.85
2023-05-11T10:25:10.076Z,2.05
2023-05-11T10:30:13.299Z,1.83
2023-05-11T10:35:15.617Z,1.95
2023-05-11T10:40:18.002Z,1.63
2023-05-11T10:45:57.577Z,1.88
2023-05-11T10:51:05.698Z,1.77
2023-05-11T10:56:43.858Z,2.60
2023-05-11T11:01:46.700Z,2.03
2023-05-11T11:07:04.690Z,1.83
2023-05-11T11:12:10.312Z,1.98
2023-05-11T11:17:22.432Z,2.10
2023-05-11T11:22:37.061Z,1.73
2023-05-11T11:27:42.019Z,2.33
2023-05-11T11:32:46.130Z,1.80
2023-05-11T11:38:04.791Z,1.95
2023-05-11T11:43:17.645Z,2.13
2023-05-11T11:48:29.561Z,1.90
2023-05-11T11:53:37.952Z,2.22
2023-05-11T11:58:46.285Z,2.00
2023-05-11T12:04:09.610Z,1.75
2023-05-11T12:09:16.821Z,2.10
2023-05-11T12:14:20.454Z,2.13
2023-05-11T12:19:24.750Z,2.28
2023-05-11T12:24:26.846Z,2.10
2023-05-11T12:29:28.691Z,2.45
2023-05-11T12:34:30.536Z,2.08
2023-05-11T12:39:32.910Z,1.60
2023-05-11T12:44:35.260Z,1.88
2023-05-11T12:49:37.360Z,1.85
2023-05-11T12:54:41.188Z,1.83
2023-05-11T12:59:43.074Z,1.63
2023-05-11T13:04:46.615Z,1.75
2023-05-11T13:09:59.357Z,1.55
2023-05-11T13:15:07.209Z,1.77
2023-05-11T13:20:27.289Z,1.55
2023-05-11T13:25:29.287Z,1.70
2023-05-11T13:30:33.410Z,1.90
2023-05-11T13:35:41.408Z,1.60
2023-05-11T13:40:43.233Z,1.60
2023-05-11T13:45:45.083Z,1.50
2023-05-11T13:50:47.274Z,1.30
2023-05-11T13:55:49.110Z,1.60
2023-05-11T14:01:06.514Z,1.42
2023-05-11T14:06:09.509Z,1.67
2023-05-11T14:11:11.332Z,1.85
2023-05-11T14:16:13.241Z,1.35
2023-05-11T14:21:15.098Z,1.65
2023-05-11T14:26:17.179Z,1.50
2023-05-11T14:31:19.155Z,1.60
2023-05-11T14:36:21.489Z,1.20
2023-05-11T14:41:23.590Z,1.50
2023-05-11T14:46:26.745Z,1.08
2023-05-11T14:51:28.876Z,1.77
2023-05-11T14:56:31.073Z,1.58
2023-05-11T15:01:33.208Z,1.75
2023-05-11T15:06:35.075Z,1.35
2023-05-11T15:11:40.741Z,1.27
2023-05-11T15:16:42.977Z,1.40
2023-05-11T15:21:44.952Z,1.35
2023-05-11T15:26:46.807Z,1.55
2023-05-11T15:31:48.694Z,1.67
2023-05-11T15:36:50.699Z,1.33
2023-05-11T15:41:52.541Z,1.17
2023-05-11T15:46:54.456Z,1.58
2023-05-11T15:51:56.322Z,1.35
2023-05-11T15:56:58.811Z,1.77
2023-05-11T16:02:00.854Z,1.33
2023-05-11T16:07:02.766Z,1.60
2023-05-11T16:12:04.837Z,1.58
2023-05-11T16:17:07.782Z,1.38
2023-05-11T16:22:10.213Z,1.33
2023-05-11T16:27:12.051Z,1.60
2023-05-11T16:32:14.481Z,1.85
2023-05-11T16:37:16.368Z,1.98
2023-05-11T16:42:19.284Z,1.73
2023-05-11T16:47:22.382Z,1.63
2023-05-11T16:52:24.785Z,1.83
2023-05-11T16:57:26.969Z,1.48
2023-05-11T17:02:29.988Z,1.70
2023-05-11T17:07:32.147Z,1.55
2023-05-11T17:12:35.700Z,1.63
2023-05-11T17:17:38.294Z,1.73
2023-05-11T17:22:40.283Z,1.33
2023-05-11T17:27:42.110Z,2.05
2023-05-11T17:32:44.369Z,1.30
2023-05-11T17:37:46.374Z,1.52
2023-05-11T17:42:48.214Z,1.50
2023-05-11T17:47:50.737Z,1.45
2023-05-11T17:52:52.632Z,1.52
2023-05-11T17:57:54.514Z,1.67
2023-05-11T18:02:56.681Z,1.60
2023-05-11T18:07:59.012Z,1.60
2023-05-11T18:13:01.025Z,1.50
2023-05-11T18:18:03.509Z,2.22
2023-05-11T18:23:05.869Z,1.60
2023-05-11T18:28:07.863Z,1.73
2023-05-11T18:33:09.770Z,1.80
2023-05-11T18:38:11.941Z,1.90
2023-05-11T18:43:14.155Z,2.05
2023-05-11T18:48:16.253Z,1.50
2023-05-11T18:53:18.178Z,1.98
2023-05-11T18:58:20.774Z,1.73
2023-05-11T19:03:23.175Z,1.88
2023-05-11T19:08:25.504Z,1.80
2023-05-11T19:13:28.591Z,1.80
2023-05-11T19:18:32.818Z,1.90
2023-05-11T19:23:35.396Z,1.85
2023-05-11T19:28:37.391Z,1.80
2023-05-11T19:33:39.273Z,1.90
2023-05-11T19:38:41.119Z,1.80
2023-05-11T19:43:43.385Z,1.67
2023-05-11T19:48:45.258Z,2.00
2023-05-11T19:53:47.537Z,1.80
2023-05-11T19:58:49.430Z,1.90
2023-05-11T20:03:52.001Z,2.22
2023-05-11T20:08:54.360Z,2.08
2023-05-11T20:13:56.460Z,1.90
2023-05-11T20:18:59.611Z,1.80
2023-05-11T20:24:01.709Z,1.83
2023-05-11T20:29:04.017Z,1.88
2023-05-11T20:34:07.319Z,2.17
2023-05-11T20:39:09.776Z,2.17
2023-05-11T20:44:13.895Z,2.03
2023-05-11T20:49:24.744Z,1.90
2023-05-11T20:54:34.964Z,2.20
2023-05-11T21:04:41.759Z,1.92
2023-05-11T21:09:44.946Z,1.60
2023-05-11T21:14:46.797Z,1.77
2023-05-11T21:19:48.605Z,1.92
2023-05-11T21:24:50.441Z,1.92
2023-05-11T21:29:52.585Z,2.10
2023-05-11T21:34:54.410Z,1.88
2023-05-11T21:39:56.251Z,2.30
2023-05-11T21:44:58.079Z,1.80
2023-05-11T21:50:00.099Z,2.22
2023-05-11T21:55:02.022Z,2.00
2023-05-11T22:00:04.530Z,2.30
2023-05-11T22:05:06.730Z,1.90
2023-05-11T22:10:09.375Z,2.00
2023-05-11T22:15:12.218Z,2.20
2023-05-11T22:20:14.683Z,2.33
2023-05-11T22:25:16.685Z,2.38
2023-05-11T22:30:18.901Z,2.05
2023-05-11T22:35:21.499Z,2.55
2023-05-11T22:40:23.477Z,2.50
2023-05-11T22:45:25.319Z,2.10
2023-05-11T22:50:27.161Z,2.33
2023-05-11T22:55:29.401Z,1.52
2023-05-11T23:00:31.431Z,1.92
2023-05-11T23:05:33.756Z,2.72
2023-05-11T23:10:35.652Z,2.28
2023-05-11T23:15:37.547Z,2.28
2023-05-11T23:20:39.428Z,2.13
2023-05-11T23:25:41.317Z,2.55
2023-05-11T23:30:45.954Z,2.20
2023-05-11T23:35:48.591Z,3.05
2023-05-11T23:40:50.568Z,1.83
2023-05-11T23:45:52.668Z,1.98
2023-05-11T23:50:54.571Z,2.20
2023-05-11T23:55:56.496Z,2.05
